createdAt,value
2022-08-30T00:00:50.803Z,17.22
2022-08-30T00:03:17.514Z,17.18
2022-08-30T00:05:44.010Z,17.14
2022-08-30T00:08:10.270Z,17.11
2022-08-30T00:10:36.587Z,17.11
2022-08-30T00:13:02.849Z,17.14
2022-08-30T00:15:29.111Z,17.12
2022-08-30T00:17:55.392Z,17.11
2022-08-30T00:20:22.937Z,17.12
2022-08-30T00:22:49.198Z,16.98
2022-08-30T00:25:15.545Z,16.99
2022-08-30T00:27:41.810Z,17.03
2022-08-30T00:30:08.419Z,16.99
2022-08-30T00:32:34.690Z,16.89
2022-08-30T00:35:00.936Z,16.91
2022-08-30T00:37:27.183Z,16.97
2022-08-30T00:39:53.432Z,16.99
2022-08-30T00:42:19.675Z,17.01
2022-08-30T00:44:45.934Z,17.04
2022-08-30T00:47:12.362Z,17.06
2022-08-30T00:49:39.286Z,17.06
2022-08-30T00:52:05.554Z,17.10
2022-08-30T00:54:32.715Z,17.10
2022-08-30T00:56:58.971Z,17.10
2022-08-30T00:59:25.326Z,17.10
2022-08-30T01:01:51.618Z,17.05
2022-08-30T01:04:17.910Z,16.99
2022-08-30T01:06:44.158Z,16.94
2022-08-30T01:09:10.403Z,16.95
2022-08-30T01:11:36.659Z,16.99
2022-08-30T01:14:02.919Z,17.02
2022-08-30T01:16:30.116Z,17.02
2022-08-30T01:18:56.696Z,16.98
2022-08-30T01:21:25.895Z,16.96
2022-08-30T01:23:52.728Z,16.97
2022-08-30T01:26:21.831Z,17.03
2022-08-30T01:28:48.730Z,17.01
2022-08-30T01:31:15.137Z,17.02
2022-08-30T01:33:41.442Z,17.03
2022-08-30T01:36:09.510Z,17.03
2022-08-30T01:38:43.700Z,17.01
2022-08-30T01:41:13.971Z,17.02
2022-08-30T01:43:40.302Z,17.04
2022-08-30T01:46:06.666Z,17.02
2022-08-30T01:48:32.976Z,17.02
2022-08-30T01:51:01.717Z,17.02
2022-08-30T01:53:28.141Z,16.97
2022-08-30T01:55:54.394Z,16.97
2022-08-30T01:58:20.633Z,16.98
2022-08-30T02:00:46.885Z,17.01
2022-08-30T02:03:13.219Z,17.00
2022-08-30T02:05:39.594Z,17.00
2022-08-30T02:08:05.829Z,16.99
2022-08-30T02:10:32.080Z,16.98
2022-08-30T02:12:58.338Z,16.96
2022-08-30T02:15:24.615Z,16.99
2022-08-30T02:17:50.850Z,17.00
2022-08-30T02:20:17.101Z,17.03
2022-08-30T02:22:47.733Z,17.04
2022-08-30T02:25:20.463Z,17.03
2022-08-30T02:27:47.277Z,17.04
2022-08-30T02:30:13.646Z,17.02
2022-08-30T02:32:39.882Z,17.01
2022-08-30T02:35:06.235Z,17.02
2022-08-30T02:37:32.486Z,17.01
2022-08-30T02:39:58.771Z,17.02
2022-08-30T02:42:25.058Z,16.99
2022-08-30T02:44:51.314Z,16.99
2022-08-30T02:47:17.555Z,17.01
2022-08-30T02:49:43.798Z,17.03
2022-08-30T02:52:10.048Z,17.03
2022-08-30T02:54:36.293Z,16.98
2022-08-30T02:57:02.544Z,16.95
2022-08-30T02:59:28.799Z,16.89
2022-08-30T03:01:55.048Z,16.79
2022-08-30T03:04:26.786Z,16.85
2022-08-30T03:06:53.292Z,16.76
2022-08-30T03:09:19.542Z,16.83
2022-08-30T03:11:45.807Z,16.88
2022-08-30T03:14:12.046Z,16.90
2022-08-30T03:16:38.384Z,16.91
2022-08-30T03:19:04.646Z,16.94
2022-08-30T03:21:30.908Z,16.95
2022-08-30T03:23:57.145Z,16.93
2022-08-30T03:26:23.402Z,16.94
2022-08-30T03:28:49.650Z,16.95
2022-08-30T03:31:15.933Z,16.94
2022-08-30T03:33:42.206Z,16.95
2022-08-30T03:36:08.834Z,16.95
2022-08-30T03:38:35.082Z,16.95
2022-08-30T03:41:01.341Z,16.95
2022-08-30T03:43:28.296Z,16.96
2022-08-30T03:45:55.532Z,16.96
2022-08-30T03:48:21.809Z,16.96
2022-08-30T03:50:48.066Z,16.95
2022-08-30T03:53:14.301Z,16.95
2022-08-30T03:55:40.555Z,16.94
2022-08-30T03:58:06.804Z,16.89
2022-08-30T04:00:33.057Z,16.92
2022-08-30T04:02:59.297Z,16.85
2022-08-30T04:05:25.540Z,16.86
2022-08-30T04:07:51.796Z,16.80
2022-08-30T04:10:18.067Z,16.80
2022-08-30T04:12:49.401Z,16.80
2022-08-30T04:15:16.082Z,16.79
2022-08-30T04:17:42.476Z,16.81
2022-08-30T04:20:08.970Z,16.75
2022-08-30T04:22:35.222Z,16.74
2022-08-30T04:25:01.472Z,16.76
2022-08-30T04:27:27.705Z,16.79
2022-08-30T04:29:53.946Z,16.76
2022-08-30T04:32:22.575Z,16.77
2022-08-30T04:34:48.861Z,16.72
2022-08-30T04:37:16.147Z,16.68
2022-08-30T04:39:42.408Z,16.57
2022-08-30T04:42:08.654Z,16.50
2022-08-30T04:44:34.918Z,16.49
2022-08-30T04:47:01.156Z,16.50
2022-08-30T04:49:27.410Z,16.54
2022-08-30T04:51:53.667Z,16.57
2022-08-30T04:54:19.926Z,16.56
2022-08-30T04:56:46.165Z,16.60
2022-08-30T04:59:12.420Z,16.65
2022-08-30T05:01:45.703Z,16.68
2022-08-30T05:04:12.546Z,16.71
2022-08-30T05:06:38.796Z,16.77
2022-08-30T05:09:05.061Z,16.84
2022-08-30T05:11:31.294Z,16.87
2022-08-30T05:13:57.545Z,16.90
2022-08-30T05:16:23.816Z,16.93
2022-08-30T05:18:50.408Z,16.92
2022-08-30T05:21:17.685Z,16.92
2022-08-30T05:23:43.919Z,16.95
2022-08-30T05:26:11.850Z,16.97
2022-08-30T05:28:38.131Z,16.97
2022-08-30T05:31:08.497Z,17.00
2022-08-30T05:33:40.359Z,17.02
2022-08-30T05:36:07.146Z,17.01
2022-08-30T05:38:33.395Z,17.02
2022-08-30T05:40:59.971Z,16.96
2022-08-30T05:43:26.838Z,16.86
2022-08-30T05:46:00.160Z,16.79
2022-08-30T05:48:26.399Z,16.80
2022-08-30T05:51:00.862Z,16.81
2022-08-30T05:53:27.111Z,16.86
2022-08-30T05:55:53.361Z,16.92
2022-08-30T05:58:19.612Z,16.94
2022-08-30T06:00:45.870Z,16.92
2022-08-30T06:03:12.187Z,16.90
2022-08-30T06:05:38.550Z,16.88
2022-08-30T06:08:04.822Z,16.86
2022-08-30T06:10:31.091Z,16.81
2022-08-30T06:12:57.333Z,16.79
2022-08-30T06:15:23.584Z,16.77
2022-08-30T06:17:49.835Z,16.80
2022-08-30T06:20:16.081Z,16.88
2022-08-30T06:22:42.330Z,16.94
2022-08-30T06:25:08.931Z,16.94
2022-08-30T06:27:35.186Z,17.02
2022-08-30T06:30:01.449Z,17.12
2022-08-30T06:32:27.703Z,17.32
2022-08-30T06:34:53.948Z,17.39
2022-08-30T06:37:29.212Z,17.59
2022-08-30T06:39:56.781Z,18.02
2022-08-30T06:42:23.069Z,19.19
2022-08-30T06:44:49.352Z,19.76
2022-08-30T06:47:17.761Z,20.53
2022-08-30T06:49:44.001Z,21.10
2022-08-30T06:52:10.650Z,21.54
2022-08-30T06:54:37.255Z,21.77
2022-08-30T06:57:03.539Z,21.84
2022-08-30T06:59:29.795Z,22.22
2022-08-30T07:01:56.176Z,22.34
2022-08-30T07:04:22.499Z,22.39
2022-08-30T07:06:48.741Z,22.26
2022-08-30T07:09:14.984Z,22.03
2022-08-30T07:11:41.271Z,21.86
2022-08-30T07:14:07.523Z,22.09
2022-08-30T07:16:33.768Z,22.69
2022-08-30T07:19:00.015Z,22.53
2022-08-30T07:21:31.751Z,22.25
2022-08-30T07:23:58.343Z,21.01
2022-08-30T07:26:26.024Z,21.35
2022-08-30T07:28:55.688Z,21.50
2022-08-30T07:31:22.596Z,21.89
2022-08-30T07:33:48.842Z,21.49
2022-08-30T07:36:15.102Z,20.88
2022-08-30T07:38:41.361Z,20.97
2022-08-30T07:41:07.647Z,20.98
2022-08-30T07:43:33.999Z,21.60
2022-08-30T07:46:03.350Z,21.53
2022-08-30T07:48:30.898Z,20.65
2022-08-30T07:50:59.047Z,20.30
2022-08-30T07:53:27.063Z,20.29
2022-08-30T07:55:53.378Z,21.01
2022-08-30T07:58:19.696Z,21.14
2022-08-30T08:00:45.947Z,21.06
2022-08-30T08:03:12.376Z,21.65
2022-08-30T08:05:39.475Z,22.08
2022-08-30T08:08:05.733Z,22.72
2022-08-30T08:10:32.226Z,22.30
2022-08-30T08:13:01.238Z,22.50
2022-08-30T08:15:27.663Z,21.72
2022-08-30T08:17:53.914Z,21.60
2022-08-30T08:20:20.202Z,22.06
2022-08-30T08:22:46.506Z,22.32
2022-08-30T08:25:12.828Z,22.40
2022-08-30T08:27:39.090Z,21.71
2022-08-30T08:30:05.616Z,21.01
2022-08-30T08:32:31.870Z,21.51
2022-08-30T08:34:58.122Z,21.84
2022-08-30T08:37:24.369Z,22.31
2022-08-30T08:39:54.142Z,22.39
2022-08-30T08:42:32.428Z,22.91
2022-08-30T08:45:10.946Z,22.62
2022-08-30T08:47:56.401Z,22.96
2022-08-30T08:50:23.201Z,22.93
2022-08-30T08:52:49.402Z,23.37
2022-08-30T08:55:16.319Z,22.06
2022-08-30T08:57:42.564Z,21.31
2022-08-30T09:00:09.678Z,20.86
2022-08-30T09:02:46.186Z,20.88
2022-08-30T09:05:13.671Z,21.32
2022-08-30T09:07:41.037Z,21.23
2022-08-30T09:10:07.447Z,21.43
2022-08-30T09:12:33.698Z,21.78
2022-08-30T09:15:10.308Z,21.83
2022-08-30T09:17:53.594Z,21.14
2022-08-30T09:20:26.782Z,20.63
2022-08-30T09:22:53.039Z,20.03
2022-08-30T09:25:22.553Z,19.62
2022-08-30T09:27:49.964Z,19.44
2022-08-30T09:30:16.939Z,19.46
2022-08-30T09:32:55.254Z,19.82
2022-08-30T09:35:22.693Z,20.89
2022-08-30T09:37:52.278Z,21.50
2022-08-30T09:40:28.719Z,21.96
2022-08-30T09:42:58.847Z,22.45
2022-08-30T09:45:28.990Z,22.42
2022-08-30T09:47:55.254Z,22.23
2022-08-30T09:50:21.507Z,22.63
2022-08-30T09:53:00.903Z,22.67
2022-08-30T09:55:34.132Z,23.10
2022-08-30T09:58:00.444Z,23.27
2022-08-30T10:00:26.940Z,22.69
2022-08-30T10:03:03.657Z,21.91
2022-08-30T10:05:38.296Z,21.54
2022-08-30T10:08:17.402Z,21.14
2022-08-30T10:10:51.381Z,20.57
2022-08-30T10:13:36.517Z,20.31
2022-08-30T10:16:08.609Z,21.25
2022-08-30T10:18:37.086Z,21.66
2022-08-30T10:21:24.069Z,21.55
2022-08-30T10:23:57.710Z,21.04
2022-08-30T10:26:27.002Z,20.77
2022-08-30T10:28:57.567Z,20.39
2022-08-30T10:31:44.205Z,20.95
2022-08-30T10:34:19.051Z,21.74
2022-08-30T10:36:48.570Z,21.95
2022-08-30T10:39:17.829Z,21.73
2022-08-30T10:41:46.341Z,21.94
2022-08-30T10:44:19.997Z,22.39
2022-08-30T10:46:46.197Z,22.47
2022-08-30T10:49:15.446Z,21.89
2022-08-30T10:51:46.850Z,21.01
2022-08-30T10:54:18.646Z,20.43
2022-08-30T10:56:45.343Z,20.50
2022-08-30T10:59:11.934Z,20.84
2022-08-30T11:01:49.675Z,20.68
2022-08-30T11:04:26.071Z,20.86
2022-08-30T11:06:55.345Z,21.15
2022-08-30T11:09:35.947Z,21.47
2022-08-30T11:12:08.460Z,21.69
2022-08-30T11:14:34.719Z,22.00
2022-08-30T11:17:01.046Z,21.90
2022-08-30T11:19:27.261Z,21.59
2022-08-30T11:22:14.571Z,21.52
2022-08-30T11:24:59.599Z,21.96
2022-08-30T11:27:42.342Z,21.97
2022-08-30T11:30:27.395Z,22.04
2022-08-30T11:32:58.230Z,22.19
2022-08-30T11:35:38.342Z,22.21
2022-08-30T11:38:11.551Z,22.37
2022-08-30T11:40:44.255Z,22.28
2022-08-30T11:43:29.439Z,22.49
2022-08-30T11:46:17.280Z,22.57
2022-08-30T11:48:53.882Z,22.53
2022-08-30T11:51:39.467Z,22.35
2022-08-30T11:54:24.693Z,22.34
2022-08-30T11:56:57.353Z,22.09
2022-08-30T11:59:26.009Z,21.92
2022-08-30T12:01:52.447Z,21.38
2022-08-30T12:04:18.722Z,21.46
2022-08-30T12:06:44.930Z,21.54
2022-08-30T12:09:24.432Z,21.58
2022-08-30T12:11:59.754Z,21.17
2022-08-30T12:14:35.013Z,20.95
2022-08-30T12:17:01.438Z,20.76
2022-08-30T12:19:27.762Z,20.48
2022-08-30T12:21:55.956Z,20.24
2022-08-30T12:24:23.807Z,20.28
2022-08-30T12:26:50.341Z,20.19
2022-08-30T12:29:19.807Z,19.98
2022-08-30T12:31:55.801Z,19.84
2022-08-30T12:34:28.317Z,19.78
2022-08-30T12:36:55.940Z,19.79
2022-08-30T12:39:23.421Z,19.65
2022-08-30T12:41:49.664Z,19.68
2022-08-30T12:44:21.409Z,19.62
2022-08-30T12:46:48.323Z,19.63
2022-08-30T12:49:17.737Z,19.57
2022-08-30T12:51:44.058Z,19.59
2022-08-30T12:54:36.727Z,19.49
2022-08-30T12:57:25.446Z,19.50
2022-08-30T12:59:58.449Z,19.51
2022-08-30T13:02:41.770Z,19.44
2022-08-30T13:05:27.246Z,19.50
2022-08-30T13:07:57.891Z,19.54
2022-08-30T13:10:24.175Z,19.51
2022-08-30T13:13:03.781Z,19.55
2022-08-30T13:15:34.310Z,19.67
2022-08-30T13:18:27.092Z,19.67
2022-08-30T13:21:09.755Z,19.69
2022-08-30T13:23:36.063Z,19.76
2022-08-30T13:26:02.318Z,19.62
2022-08-30T13:28:28.787Z,19.55
2022-08-30T13:30:55.845Z,19.51
2022-08-30T13:33:22.097Z,19.51
2022-08-30T13:35:48.350Z,19.55
2022-08-30T13:38:14.627Z,19.51
2022-08-30T13:40:40.929Z,19.50
2022-08-30T13:43:08.220Z,19.49
2022-08-30T13:45:42.289Z,19.55
2022-08-30T13:48:08.949Z,19.59
2022-08-30T13:50:35.197Z,19.60
2022-08-30T13:53:01.468Z,19.61
2022-08-30T13:55:27.741Z,19.58
2022-08-30T13:57:55.282Z,19.64
2022-08-30T14:00:22.191Z,19.67
2022-08-30T14:02:54.628Z,19.80
2022-08-30T14:05:47.817Z,19.89
2022-08-30T14:08:44.481Z,20.00
2022-08-30T14:10:55.470Z,19.99
2022-08-30T14:13:22.054Z,20.04
2022-08-30T14:15:48.590Z,20.25
2022-08-30T14:18:17.891Z,20.52
2022-08-30T14:20:44.552Z,20.47
2022-08-30T14:23:11.310Z,20.53
2022-08-30T14:25:37.670Z,20.58
2022-08-30T14:28:06.596Z,20.54
2022-08-30T14:30:33.428Z,20.34
2022-08-30T14:33:00.312Z,20.25
2022-08-30T14:35:26.565Z,20.44
2022-08-30T14:37:53.812Z,20.35
2022-08-30T14:40:20.148Z,20.30
2022-08-30T14:42:46.446Z,20.19
2022-08-30T14:45:12.719Z,20.14
2022-08-30T14:47:38.979Z,20.23
2022-08-30T14:50:05.463Z,20.19
2022-08-30T14:52:32.011Z,20.13
2022-08-30T14:55:05.223Z,20.05
2022-08-30T14:57:35.423Z,20.09
2022-08-30T15:00:01.690Z,19.98
2022-08-30T15:02:27.946Z,19.96
2022-08-30T15:04:54.185Z,19.91
2022-08-30T15:07:20.434Z,19.96
2022-08-30T15:09:46.669Z,19.94
2022-08-30T15:12:12.931Z,19.90
2022-08-30T15:14:39.828Z,19.89
2022-08-30T15:17:06.089Z,19.84
2022-08-30T15:19:32.374Z,19.82
2022-08-30T15:21:59.427Z,19.76
2022-08-30T15:24:29.715Z,19.72
2022-08-30T15:26:56.296Z,19.71
2022-08-30T15:29:22.579Z,19.71
2022-08-30T15:31:49.673Z,19.72
2022-08-30T15:34:16.699Z,19.65
2022-08-30T15:36:43.293Z,19.62
2022-08-30T15:39:09.624Z,19.51
2022-08-30T15:41:37.671Z,19.53
2022-08-30T15:44:06.241Z,19.59
2022-08-30T15:46:34.164Z,19.44
2022-08-30T15:49:02.315Z,19.43
2022-08-30T15:51:28.712Z,19.49
2022-08-30T15:53:57.166Z,19.41
2022-08-30T15:56:23.637Z,19.31
2022-08-30T15:58:49.889Z,19.23
2022-08-30T16:01:19.842Z,19.22
2022-08-30T16:03:56.709Z,19.15
2022-08-30T16:06:24.650Z,19.16
2022-08-30T16:08:51.033Z,19.15
2022-08-30T16:11:17.880Z,19.17
2022-08-30T16:13:46.908Z,19.16
2022-08-30T16:16:16.770Z,19.13
2022-08-30T16:18:43.042Z,19.03
2022-08-30T16:21:09.481Z,18.94
2022-08-30T16:23:36.148Z,18.85
2022-08-30T16:26:04.307Z,18.85
2022-08-30T16:28:30.787Z,18.81
2022-08-30T16:30:58.223Z,18.80
2022-08-30T16:33:24.597Z,18.74
2022-08-30T16:35:53.970Z,18.70
2022-08-30T16:38:20.340Z,18.64
2022-08-30T16:40:46.951Z,18.63
2022-08-30T16:43:13.288Z,18.55
2022-08-30T16:45:39.909Z,18.54
2022-08-30T16:48:06.186Z,18.50
2022-08-30T16:50:34.722Z,18.47
2022-08-30T16:53:01.027Z,18.44
2022-08-30T16:55:28.319Z,18.34
2022-08-30T16:57:56.359Z,18.29
2022-08-30T17:00:22.810Z,18.20
2022-08-30T17:02:54.005Z,18.16
2022-08-30T17:05:21.155Z,18.11
2022-08-30T17:07:47.411Z,18.03
2022-08-30T17:10:14.274Z,17.97
2022-08-30T17:12:41.754Z,17.89
2022-08-30T17:15:08.401Z,17.85
2022-08-30T17:17:34.847Z,17.74
2022-08-30T17:20:02.387Z,17.61
2022-08-30T17:22:28.944Z,17.57
2022-08-30T17:24:55.208Z,17.50
2022-08-30T17:27:22.029Z,17.43
2022-08-30T17:29:48.281Z,17.39
2022-08-30T17:32:14.535Z,17.30
2022-08-30T17:34:40.773Z,17.21
2022-08-30T17:37:11.557Z,17.15
2022-08-30T17:39:44.513Z,16.99
2022-08-30T17:42:10.776Z,16.94
2022-08-30T17:44:37.084Z,16.75
2022-08-30T17:47:03.412Z,16.66
2022-08-30T17:49:29.945Z,16.57
2022-08-30T17:51:57.159Z,16.51
2022-08-30T17:54:27.389Z,16.46
2022-08-30T17:56:53.938Z,16.37
2022-08-30T17:59:20.211Z,16.39
2022-08-30T18:01:52.457Z,16.32
2022-08-30T18:04:19.446Z,16.25
2022-08-30T18:06:46.634Z,16.21
2022-08-30T18:09:12.870Z,16.11
2022-08-30T18:11:39.478Z,16.08
2022-08-30T18:14:05.911Z,16.03
2022-08-30T18:16:33.057Z,15.98
2022-08-30T18:19:01.154Z,15.97
2022-08-30T18:21:28.397Z,16.02
2022-08-30T18:23:54.792Z,16.09
2022-08-30T18:26:24.299Z,16.22
2022-08-30T18:28:50.854Z,16.19
2022-08-30T18:31:17.103Z,16.16
2022-08-30T18:33:44.121Z,16.08
2022-08-30T18:36:10.460Z,16.04
2022-08-30T18:38:36.886Z,15.88
2022-08-30T18:41:04.014Z,15.70
2022-08-30T18:43:31.051Z,15.67
2022-08-30T18:45:57.446Z,15.81
2022-08-30T18:48:23.707Z,15.98
2022-08-30T18:50:53.548Z,15.97
2022-08-30T18:53:28.429Z,15.59
2022-08-30T18:55:55.655Z,15.65
2022-08-30T18:58:21.921Z,15.58
2022-08-30T19:00:49.130Z,15.41
2022-08-30T19:03:15.379Z,15.48
2022-08-30T19:05:41.889Z,15.53
2022-08-30T19:08:08.198Z,15.61
2022-08-30T19:10:35.468Z,15.47
2022-08-30T19:13:01.788Z,15.50
2022-08-30T19:15:28.172Z,15.41
2022-08-30T19:17:54.429Z,15.36
2022-08-30T19:20:21.108Z,15.35
2022-08-30T19:23:09.030Z,15.35
2022-08-30T19:25:33.797Z,15.31
2022-08-30T19:28:00.075Z,15.20
2022-08-30T19:30:29.759Z,15.18
2022-08-30T19:32:56.281Z,15.10
2022-08-30T19:35:22.525Z,15.03
2022-08-30T19:37:48.769Z,15.06
2022-08-30T19:40:15.487Z,14.87
2022-08-30T19:42:45.991Z,14.64
2022-08-30T19:45:13.378Z,14.65
2022-08-30T19:47:39.628Z,14.66
2022-08-30T19:50:06.430Z,14.67
2022-08-30T19:52:32.716Z,14.67
2022-08-30T19:54:59.571Z,14.68
2022-08-30T19:57:25.823Z,14.68
2022-08-30T19:59:54.077Z,14.65
2022-08-30T20:02:20.373Z,14.38
2022-08-30T20:04:46.659Z,14.39
2022-08-30T20:07:14.179Z,14.35
2022-08-30T20:09:40.622Z,14.38
2022-08-30T20:12:07.121Z,14.36
2022-08-30T20:14:33.378Z,14.34
2022-08-30T20:16:59.822Z,14.33
2022-08-30T20:19:29.262Z,14.33
2022-08-30T20:21:55.825Z,14.27
2022-08-30T20:24:31.954Z,14.19
2022-08-30T20:26:58.273Z,14.06
2022-08-30T20:29:24.528Z,14.01
2022-08-30T20:31:50.776Z,14.04
2022-08-30T20:34:17.025Z,14.01
2022-08-30T20:36:43.278Z,14.00
2022-08-30T20:39:09.543Z,13.95
2022-08-30T20:41:36.176Z,13.87
2022-08-30T20:44:03.038Z,13.82
2022-08-30T20:46:33.849Z,13.78
2022-08-30T20:49:00.501Z,13.77
2022-08-30T20:51:26.947Z,13.73
2022-08-30T20:53:53.307Z,13.71
2022-08-30T20:56:19.966Z,13.71
2022-08-30T20:58:46.211Z,13.68
2022-08-30T21:01:12.564Z,13.69
2022-08-30T21:03:38.904Z,13.61
2022-08-30T21:06:05.181Z,13.61
2022-08-30T21:08:31.421Z,13.59
2022-08-30T21:10:57.679Z,13.54
2022-08-30T21:13:23.923Z,13.51
2022-08-30T21:15:50.845Z,13.48
2022-08-30T21:18:18.006Z,13.44
2022-08-30T21:20:44.410Z,13.35
2022-08-30T21:23:10.739Z,13.30
2022-08-30T21:25:40.455Z,13.21
2022-08-30T21:28:06.815Z,13.23
2022-08-30T21:30:33.271Z,13.23
2022-08-30T21:33:00.144Z,13.16
2022-08-30T21:35:26.587Z,13.14
2022-08-30T21:37:53.141Z,13.11
2022-08-30T21:40:19.447Z,13.15
2022-08-30T21:42:45.721Z,13.16
2022-08-30T21:45:12.315Z,13.17
2022-08-30T21:47:38.606Z,13.14
2022-08-30T21:50:05.038Z,13.08
2022-08-30T21:52:31.289Z,13.04
2022-08-30T21:54:57.547Z,13.01
2022-08-30T21:57:23.787Z,13.04
2022-08-30T21:59:50.044Z,13.04
2022-08-30T22:02:16.278Z,12.92
2022-08-30T22:04:42.527Z,12.84
2022-08-30T22:07:08.768Z,12.79
2022-08-30T22:09:35.015Z,12.82
2022-08-30T22:12:01.258Z,12.80
2022-08-30T22:14:27.505Z,12.74
2022-08-30T22:16:53.904Z,12.54
2022-08-30T22:19:23.251Z,12.54
2022-08-30T22:21:49.794Z,12.60
2022-08-30T22:24:16.034Z,12.64
2022-08-30T22:26:42.386Z,12.65
2022-08-30T22:29:08.737Z,12.64
2022-08-30T22:31:35.267Z,12.64
2022-08-30T22:34:07.645Z,12.58
2022-08-30T22:36:34.790Z,12.57
2022-08-30T22:39:01.275Z,12.24
2022-08-30T22:41:30.564Z,12.36
2022-08-30T22:43:57.762Z,12.39
2022-08-30T22:46:24.109Z,12.42
2022-08-30T22:49:00.383Z,12.42
2022-08-30T22:51:26.643Z,12.44
2022-08-30T22:53:52.882Z,12.50
2022-08-30T22:56:20.134Z,12.41
2022-08-30T22:58:46.412Z,12.38
2022-08-30T23:01:20.053Z,12.35
2022-08-30T23:03:46.359Z,12.31
2022-08-30T23:06:12.607Z,11.99
2022-08-30T23:08:38.842Z,11.95
2022-08-30T23:11:05.124Z,12.03
2022-08-30T23:13:31.378Z,12.07
2022-08-30T23:15:57.638Z,12.15
2022-08-30T23:18:23.884Z,12.15
2022-08-30T23:20:50.136Z,12.15
2022-08-30T23:23:16.415Z,12.16
2022-08-30T23:25:44.536Z,12.10
2022-08-30T23:28:10.859Z,12.09
2022-08-30T23:30:37.115Z,12.08
2022-08-30T23:33:03.922Z,12.08
2022-08-30T23:35:30.187Z,12.00
2022-08-30T23:37:57.373Z,12.03
2022-08-30T23:40:23.702Z,12.08
2022-08-30T23:42:49.975Z,11.95
2022-08-30T23:45:16.251Z,11.45
2022-08-30T23:47:42.506Z,11.36
2022-08-30T23:50:08.825Z,11.61
2022-08-30T23:52:35.071Z,11.69
2022-08-30T23:55:01.318Z,11.74
2022-08-30T23:57:27.566Z,11.76
2022-08-30T23:59:53.827Z,11.72
